Time;durP1;ratioP1;P1;durP2;ratioP2;P2;SDS_P1;SDS_P2;PMS_P1;PMS_P2;Temp;Humidity;BMP_temperature;BMP_pressure;BME280_temperature;BME280_humidity;BME280_pressure;Samples;Min_cycle;Max_cycle;Signal;HPM_P1;HPM_P2
2023/10/30 00:00:52;;;;;;;4.50;1.10;;;11.30;99.90;;;;;;5012409;28;20048;-49
2023/10/30 00:03:17;;;;;;;5.18;1.35;;;11.30;99.90;;;;;;5012129;28;20037;-51
2023/10/30 00:05:43;;;;;;;4.18;1.50;;;11.40;99.90;;;;;;5012331;28;20081;-51
2023/10/30 00:08:09;;;;;;;5.45;1.50;;;11.30;99.90;;;;;;5012208;28;20049;-48
2023/10/30 00:10:35;;;;;;;4.30;1.33;;;11.40;99.90;;;;;;5011782;28;20082;-48
2023/10/30 00:13:01;;;;;;;4.75;1.33;;;11.40;99.90;;;;;;5012299;28;20022;-48
2023/10/30 00:15:26;;;;;;;6.07;3.20;;;11.40;99.90;;;;;;5012088;28;20030;-49
2023/10/30 00:17:52;;;;;;;7.32;1.65;;;11.40;99.90;;;;;;5012184;28;20080;-48
2023/10/30 00:20:18;;;;;;;6.35;1.25;;;11.40;99.90;;;;;;5012360;28;20150;-49
2023/10/30 00:22:45;;;;;;;6.90;1.50;;;11.40;99.90;;;;;;5012319;28;20153;-48
2023/10/30 00:25:10;;;;;;;9.48;2.35;;;11.30;99.90;;;;;;5012304;28;20026;-48
2023/10/30 00:27:36;;;;;;;6.47;1.98;;;11.30;99.90;;;;;;5012242;28;20141;-49
2023/10/30 00:30:02;;;;;;;3.03;1.33;;;11.30;99.90;;;;;;5012190;28;20221;-51
2023/10/30 00:32:27;;;;;;;6.53;1.33;;;11.30;99.90;;;;;;5012123;28;20032;-49
2023/10/30 00:34:53;;;;;;;6.15;1.55;;;11.30;99.90;;;;;;5011846;28;20126;-50
2023/10/30 00:37:19;;;;;;;7.50;1.88;;;11.30;99.90;;;;;;5011185;28;20039;-48
2023/10/30 00:39:44;;;;;;;6.93;1.90;;;11.30;99.90;;;;;;5012057;28;20037;-52
2023/10/30 00:42:10;;;;;;;5.90;1.70;;;11.30;99.90;;;;;;5011870;28;20048;-51
2023/10/30 00:44:39;;;;;;;5.15;1.45;;;11.30;99.90;;;;;;5012021;28;20064;-51
2023/10/30 00:47:05;;;;;;;5.85;1.40;;;11.30;99.90;;;;;;5012054;28;20030;-51
2023/10/30 00:49:31;;;;;;;5.05;1.55;;;11.20;99.90;;;;;;5009873;28;20057;-52
2023/10/30 00:51:57;;;;;;;9.20;1.85;;;11.20;99.90;;;;;;5008919;28;20060;-48
2023/10/30 00:54:22;;;;;;;3.95;1.30;;;11.20;99.90;;;;;;5009007;28;20026;-49
2023/10/30 00:56:48;;;;;;;7.63;1.80;;;11.20;99.90;;;;;;5007961;28;20089;-48
2023/10/30 00:59:14;;;;;;;9.70;2.42;;;11.20;99.90;;;;;;5008925;28;20038;-51
2023/10/30 01:01:40;;;;;;;7.00;1.60;;;11.10;99.90;;;;;;5008539;28;20026;-51
2023/10/30 01:04:06;;;;;;;5.25;1.70;;;11.10;99.90;;;;;;5008641;28;20026;-51
2023/10/30 01:06:31;;;;;;;7.70;1.50;;;11.10;99.90;;;;;;5008617;28;20182;-51
2023/10/30 01:08:57;;;;;;;4.18;1.55;;;11.10;99.90;;;;;;5008504;28;20033;-51
2023/10/30 01:11:22;;;;;;;8.23;1.55;;;11.00;99.90;;;;;;5008615;28;20054;-49
2023/10/30 01:13:48;;;;;;;7.03;1.70;;;11.00;99.90;;;;;;5007385;28;20066;-48
2023/10/30 01:16:14;;;;;;;4.90;1.58;;;10.90;99.90;;;;;;5008512;28;20090;-47
2023/10/30 01:18:40;;;;;;;9.00;1.65;;;10.90;99.90;;;;;;5008633;28;20030;-47
2023/10/30 01:21:12;;;;;;;7.28;1.70;;;10.90;99.90;;;;;;5007991;28;20070;-48
2023/10/30 01:23:37;;;;;;;7.10;2.03;;;10.90;99.90;;;;;;5007125;28;20030;-48
2023/10/30 01:26:03;;;;;;;8.52;1.90;;;10.90;99.90;;;;;;5008408;28;20219;-50
2023/10/30 01:28:29;;;;;;;7.55;1.67;;;10.90;99.90;;;;;;5008030;28;20038;-48
2023/10/30 01:30:55;;;;;;;7.55;1.50;;;10.90;99.90;;;;;;5007155;28;20040;-48
2023/10/30 01:33:21;;;;;;;5.40;1.73;;;10.90;99.90;;;;;;5008005;28;20026;-47
2023/10/30 01:35:47;;;;;;;9.45;1.63;;;10.90;99.90;;;;;;5007954;28;20038;-48
2023/10/30 01:38:12;;;;;;;6.40;1.85;;;10.90;99.90;;;;;;5007950;28;20274;-51
2023/10/30 01:40:49;;;;;;;5.88;1.85;;;11.00;99.90;;;;;;5006960;28;20042;-49
2023/10/30 01:43:15;;;;;;;6.38;1.50;;;11.00;99.90;;;;;;5008102;28;20058;-49
2023/10/30 01:45:41;;;;;;;8.30;1.52;;;11.00;99.90;;;;;;5007753;28;20267;-48
2023/10/30 01:48:06;;;;;;;6.30;1.60;;;11.00;99.90;;;;;;5007805;28;20038;-49
2023/10/30 01:50:32;;;;;;;5.55;2.08;;;11.00;99.90;;;;;;5007829;28;20310;-49
2023/10/30 01:52:58;;;;;;;7.68;1.83;;;11.00;99.90;;;;;;4974363;28;20033;-48
2023/10/30 01:55:24;;;;;;;4.38;1.25;;;11.00;99.90;;;;;;5006535;28;20199;-48
2023/10/30 01:57:49;;;;;;;10.75;1.90;;;11.00;99.90;;;;;;4990407;28;20030;-48
2023/10/30 02:00:15;;;;;;;9.75;2.03;;;11.00;99.90;;;;;;5006100;28;20240;-51
2023/10/30 02:02:41;;;;;;;6.55;1.58;;;11.00;99.90;;;;;;5006680;28;20061;-51
2023/10/30 02:05:08;;;;;;;6.45;2.00;;;11.00;99.90;;;;;;5007642;28;20299;-52
2023/10/30 02:07:35;;;;;;;5.57;2.10;;;11.00;99.90;;;;;;5007304;28;20093;-51
2023/10/30 02:10:01;;;;;;;7.15;2.10;;;11.00;99.90;;;;;;5006193;28;20042;-51
2023/10/30 02:12:27;;;;;;;13.65;2.15;;;11.00;99.90;;;;;;5007514;28;20192;-50
2023/10/30 02:14:53;;;;;;;6.05;1.70;;;11.00;99.90;;;;;;5007513;28;20015;-51
2023/10/30 02:17:18;;;;;;;5.43;1.48;;;11.00;99.90;;;;;;5007486;28;20037;-51
2023/10/30 02:19:44;;;;;;;9.05;2.00;;;11.00;99.90;;;;;;5007073;28;20113;-51
2023/10/30 02:22:10;;;;;;;7.45;1.60;;;10.90;99.90;;;;;;5007137;28;20073;-52
2023/10/30 02:24:35;;;;;;;6.20;1.90;;;10.80;99.90;;;;;;5006789;28;20026;-51
2023/10/30 02:27:01;;;;;;;7.32;1.92;;;10.80;99.90;;;;;;5006097;28;20030;-52
2023/10/30 02:29:27;;;;;;;5.55;1.80;;;10.80;99.90;;;;;;5007197;28;20045;-51
2023/10/30 02:31:54;;;;;;;6.60;2.13;;;10.70;99.90;;;;;;5006920;28;20026;-51
2023/10/30 02:34:19;;;;;;;8.18;2.17;;;10.70;99.90;;;;;;5006944;28;20110;-51
2023/10/30 02:36:45;;;;;;;6.80;2.47;;;10.60;99.90;;;;;;5007015;28;20030;-48
2023/10/30 02:39:11;;;;;;;5.30;1.63;;;10.50;99.90;;;;;;5007274;28;20026;-50
2023/10/30 02:41:36;;;;;;;7.45;2.00;;;10.40;99.90;;;;;;5006826;28;20037;-48
2023/10/30 02:44:02;;;;;;;6.20;2.00;;;10.40;99.90;;;;;;5006708;28;20030;-48
2023/10/30 02:46:28;;;;;;;7.15;1.80;;;10.30;99.90;;;;;;5006923;28;20045;-50
2023/10/30 02:48:54;;;;;;;7.32;1.88;;;10.30;99.90;;;;;;5006811;28;20034;-56
2023/10/30 02:51:19;;;;;;;9.52;2.00;;;10.40;99.90;;;;;;5005829;28;20026;-50
2023/10/30 02:53:45;;;;;;;8.60;1.70;;;10.30;99.90;;;;;;5006737;28;20077;-49
2023/10/30 02:56:10;;;;;;;4.90;1.50;;;10.40;99.90;;;;;;5006216;28;20093;-50
2023/10/30 02:58:36;;;;;;;4.95;1.40;;;10.40;99.90;;;;;;5005695;28;20026;-47
2023/10/30 03:01:02;;;;;;;5.65;1.50;;;10.40;99.90;;;;;;5006667;28;20038;-48
2023/10/30 03:03:29;;;;;;;3.10;1.30;;;10.40;99.90;;;;;;5006513;28;20049;-47
2023/10/30 03:05:54;;;;;;;5.20;1.35;;;10.30;99.90;;;;;;5006510;28;20287;-48
2023/10/30 03:08:20;;;;;;;4.82;1.73;;;10.30;99.90;;;;;;5005541;28;20085;-48
2023/10/30 03:10:49;;;;;;;4.72;1.88;;;10.20;99.90;;;;;;5006004;28;20076;-48
2023/10/30 03:13:14;;;;;;;10.02;1.40;;;10.10;99.90;;;;;;5005667;28;20085;-47
2023/10/30 03:15:45;;;;;;;4.53;1.27;;;10.10;99.90;;;;;;5006397;28;20068;-47
2023/10/30 03:18:11;;;;;;;6.90;1.25;;;10.10;99.90;;;;;;5006365;28;20051;-48
2023/10/30 03:20:36;;;;;;;5.03;1.10;;;10.00;99.90;;;;;;5005269;28;20144;-47
2023/10/30 03:23:02;;;;;;;5.82;1.20;;;10.00;99.90;;;;;;5006403;28;20105;-48
2023/10/30 03:25:28;;;;;;;4.97;1.35;;;9.90;99.90;;;;;;5005138;28;20034;-47
2023/10/30 03:27:53;;;;;;;5.78;1.15;;;9.90;99.90;;;;;;5005963;28;20034;-48
2023/10/30 03:30:19;;;;;;;2.97;1.20;;;9.80;99.90;;;;;;5006285;28;20081;-49
2023/10/30 03:32:45;;;;;;;6.03;1.63;;;9.80;99.90;;;;;;5006191;28;20041;-47
2023/10/30 03:35:10;;;;;;;5.85;1.15;;;9.80;99.90;;;;;;5006233;28;20078;-48
2023/10/30 03:37:36;;;;;;;7.30;1.30;;;9.80;99.90;;;;;;5006174;28;20026;-49
2023/10/30 03:40:02;;;;;;;4.57;1.35;;;9.80;99.90;;;;;;5006211;28;20145;-51
2023/10/30 03:42:27;;;;;;;4.88;1.10;;;9.80;99.90;;;;;;5005893;28;20055;-51
2023/10/30 03:44:53;;;;;;;5.32;1.20;;;9.70;99.90;;;;;;5006176;28;20045;-47
2023/10/30 03:47:19;;;;;;;7.80;1.52;;;9.80;99.90;;;;;;5006135;28;20164;-49
2023/10/30 03:49:45;;;;;;;5.68;1.27;;;9.70;99.90;;;;;;5005930;28;20037;-47
2023/10/30 03:52:10;;;;;;;6.55;1.88;;;9.70;99.90;;;;;;5005919;28;20022;-48
2023/10/30 03:54:36;;;;;;;4.22;1.30;;;9.70;99.90;;;;;;5005985;28;20146;-50
2023/10/30 03:57:02;;;;;;;5.25;1.15;;;9.70;99.90;;;;;;5005997;28;20023;-48
2023/10/30 03:59:28;;;;;;;5.57;1.50;;;9.60;99.90;;;;;;5005758;28;20176;-48
2023/10/30 04:01:54;;;;;;;5.57;1.30;;;9.60;99.90;;;;;;5005903;28;20073;-52
2023/10/30 04:04:20;;;;;;;5.65;1.40;;;9.60;99.90;;;;;;5005827;28;20098;-49
2023/10/30 04:06:45;;;;;;;4.28;1.40;;;9.60;99.90;;;;;;5005962;28;20034;-49
2023/10/30 04:09:11;;;;;;;4.88;1.45;;;9.60;99.90;;;;;;5005856;28;20061;-49
2023/10/30 04:11:37;;;;;;;7.13;1.40;;;9.60;99.90;;;;;;5005462;28;20046;-48
2023/10/30 04:14:02;;;;;;;4.88;1.40;;;9.50;99.90;;;;;;5005455;28;20030;-47
2023/10/30 04:16:28;;;;;;;4.43;1.38;;;9.50;99.90;;;;;;5005733;28;20030;-50
2023/10/30 04:18:54;;;;;;;2.72;1.23;;;9.50;99.90;;;;;;4988666;28;20142;-48
2023/10/30 04:21:20;;;;;;;6.85;1.48;;;9.50;99.90;;;;;;5005379;28;20022;-47
2023/10/30 04:23:45;;;;;;;7.43;1.55;;;9.40;99.90;;;;;;5005886;28;20107;-48
2023/10/30 04:26:11;;;;;;;4.60;1.10;;;9.40;99.90;;;;;;5009409;28;20093;-48
2023/10/30 04:28:37;;;;;;;7.72;1.40;;;9.30;99.90;;;;;;5009349;28;20023;-50
2023/10/30 04:31:04;;;;;;;4.65;1.30;;;9.30;99.90;;;;;;5009389;28;20038;-48
2023/10/30 04:33:29;;;;;;;3.55;1.25;;;9.30;99.90;;;;;;5008262;28;20054;-51
2023/10/30 04:35:55;;;;;;;2.10;1.20;;;9.30;99.90;;;;;;5009177;28;20287;-51
2023/10/30 04:38:24;;;;;;;8.50;1.58;;;9.30;99.90;;;;;;5008232;28;20227;-52
2023/10/30 04:40:50;;;;;;;5.60;1.50;;;9.40;99.90;;;;;;5009226;28;20038;-52
2023/10/30 04:43:15;;;;;;;6.05;1.45;;;9.30;99.90;;;;;;5009329;28;20030;-51
2023/10/30 04:45:41;;;;;;;6.05;1.38;;;9.30;99.90;;;;;;5008695;28;20089;-51
2023/10/30 04:48:07;;;;;;;4.30;1.35;;;9.40;99.90;;;;;;5008961;28;20022;-51
2023/10/30 04:50:32;;;;;;;6.28;1.35;;;9.30;99.90;;;;;;5009203;28;20283;-51
2023/10/30 04:52:58;;;;;;;5.28;1.45;;;9.30;99.90;;;;;;5009026;28;20127;-51
2023/10/30 04:55:24;;;;;;;4.93;1.30;;;9.30;99.90;;;;;;5007806;28;20037;-50
2023/10/30 04:57:49;;;;;;;6.82;1.48;;;9.30;99.90;;;;;;5009084;28;20137;-51
2023/10/30 05:03:37;;;;;;;3.70;1.20;;;9.20;99.90;;;;;;5008647;28;20159;-48
2023/10/30 05:06:03;;;;;;;3.65;1.40;;;9.20;99.90;;;;;;5008614;28;20034;-47
2023/10/30 05:08:29;;;;;;;4.28;1.00;;;9.20;99.90;;;;;;5008623;28;20341;-48
2023/10/30 05:10:54;;;;;;;5.00;1.17;;;9.10;99.90;;;;;;5008131;28;20073;-51
2023/10/30 05:13:20;;;;;;;5.78;1.40;;;9.20;99.90;;;;;;5008174;28;20287;-49
2023/10/30 05:15:46;;;;;;;4.03;1.20;;;9.20;99.90;;;;;;5008110;28;20077;-48
2023/10/30 05:18:13;;;;;;;4.90;1.23;;;9.20;99.90;;;;;;5008539;28;20030;-50
2023/10/30 05:20:38;;;;;;;3.88;1.00;;;9.10;99.90;;;;;;5007356;28;20026;-51
2023/10/30 05:23:04;;;;;;;6.07;1.20;;;9.10;99.90;;;;;;5008421;28;20092;-51
2023/10/30 05:25:30;;;;;;;2.38;1.02;;;9.20;99.90;;;;;;5008129;28;20018;-51
2023/10/30 05:27:56;;;;;;;2.72;1.17;;;9.10;99.90;;;;;;5008197;28;20046;-50
2023/10/30 05:30:21;;;;;;;5.32;1.20;;;9.10;99.90;;;;;;5008190;28;20037;-51
2023/10/30 05:32:47;;;;;;;5.53;1.17;;;9.10;99.90;;;;;;5008316;28;20060;-51
2023/10/30 05:35:13;;;;;;;6.18;1.10;;;9.10;99.90;;;;;;5006799;28;20037;-51
2023/10/30 05:37:38;;;;;;;5.18;1.20;;;9.10;99.90;;;;;;5008310;28;20253;-51
2023/10/30 05:40:07;;;;;;;3.58;1.33;;;9.20;99.90;;;;;;5008199;28;20302;-51
2023/10/30 05:42:32;;;;;;;4.47;1.40;;;9.20;99.90;;;;;;5008158;28;20084;-52
2023/10/30 05:44:58;;;;;;;3.67;1.17;;;9.20;99.90;;;;;;5008061;28;20307;-50
2023/10/30 05:47:24;;;;;;;2.17;1.27;;;9.20;99.90;;;;;;5007809;28;20037;-51
2023/10/30 05:49:50;;;;;;;3.40;1.50;;;9.20;99.90;;;;;;5007595;28;20124;-52
2023/10/30 05:52:15;;;;;;;3.10;1.48;;;9.30;99.90;;;;;;5006989;28;20023;-52
2023/10/30 05:54:41;;;;;;;6.90;1.65;;;9.30;99.90;;;;;;5007890;28;20275;-51
2023/10/30 05:57:07;;;;;;;4.32;1.70;;;9.30;99.90;;;;;;5007770;28;20077;-51
2023/10/30 05:59:32;;;;;;;5.10;1.92;;;9.40;99.90;;;;;;5007591;28;20045;-51
2023/10/30 06:01:58;;;;;;;8.73;4.15;;;9.50;99.90;;;;;;5007468;28;20035;-50
2023/10/30 06:04:24;;;;;;;6.20;2.53;;;9.50;99.90;;;;;;5007559;28;20191;-51
2023/10/30 06:06:50;;;;;;;5.50;1.98;;;9.50;99.90;;;;;;5007126;28;20140;-50
2023/10/30 06:09:15;;;;;;;4.78;2.03;;;9.60;99.90;;;;;;5007587;28;20026;-51
2023/10/30 06:11:45;;;;;;;4.97;1.63;;;9.60;99.90;;;;;;5007094;28;20116;-51
2023/10/30 06:14:11;;;;;;;;;;;9.70;99.90;;;;;;5007987;28;20042;-51
2023/10/30 06:16:36;;;;;;;7.53;1.80;;;9.70;99.90;;;;;;5007411;28;20050;-52
2023/10/30 06:19:02;;;;;;;3.03;1.40;;;9.70;99.90;;;;;;5007258;28;20056;-50
2023/10/30 06:21:28;;;;;;;3.70;1.13;;;9.80;99.90;;;;;;5007088;28;20073;-50
2023/10/30 06:23:53;;;;;;;3.38;1.30;;;9.80;99.90;;;;;;5007102;28;20086;-48
2023/10/30 06:26:19;;;;;;;4.55;1.50;;;9.90;99.90;;;;;;5007193;28;20062;-50
2023/10/30 06:28:45;;;;;;;3.40;1.50;;;9.90;99.90;;;;;;5006062;28;20068;-52
2023/10/30 06:31:17;;;;;;;6.38;2.55;;;9.90;99.90;;;;;;5006248;28;20022;-49
2023/10/30 06:33:43;;;;;;;6.15;1.95;;;10.00;99.90;;;;;;5006808;28;20033;-51
2023/10/30 06:36:09;;;;;;;4.82;1.50;;;10.00;99.90;;;;;;5006627;28;20022;-51
2023/10/30 06:38:35;;;;;;;3.80;1.40;;;10.00;99.90;;;;;;5007001;28;20280;-51
2023/10/30 06:41:04;;;;;;;4.50;1.70;;;10.10;99.90;;;;;;5006915;28;20294;-48
2023/10/30 06:43:32;;;;;;;5.47;1.88;;;10.10;99.90;;;;;;5006731;28;20184;-48
2023/10/30 06:46:04;;;;;;;4.18;1.52;;;10.10;99.90;;;;;;5006797;28;20149;-51
2023/10/30 06:48:30;;;;;;;7.25;2.22;;;10.10;99.90;;;;;;5006787;28;20042;-48
2023/10/30 06:50:55;;;;;;;3.17;1.48;;;10.10;99.90;;;;;;5006802;28;20023;-49
2023/10/30 06:53:22;;;;;;;4.40;1.55;;;10.20;99.90;;;;;;5006271;28;20026;-51
2023/10/30 06:55:47;;;;;;;5.68;2.10;;;10.20;99.90;;;;;;5006519;28;20042;-48
2023/10/30 06:58:13;;;;;;;6.78;1.70;;;10.20;99.90;;;;;;5006772;28;20125;-51
2023/10/30 07:00:39;;;;;;;3.75;2.50;;;10.30;99.90;;;;;;5005558;28;20045;-48
2023/10/30 07:03:04;;;;;;;6.38;2.35;;;10.30;99.90;;;;;;5006741;28;20034;-50
2023/10/30 07:05:30;;;;;;;7.43;1.75;;;10.40;99.90;;;;;;5006323;28;20183;-52
2023/10/30 07:07:56;;;;;;;4.35;2.00;;;10.40;99.90;;;;;;5006385;28;20018;-48
2023/10/30 07:10:21;;;;;;;5.38;1.67;;;10.40;99.90;;;;;;5005962;28;20050;-52
2023/10/30 07:12:47;;;;;;;4.53;1.98;;;10.40;99.90;;;;;;5005368;28;20029;-50
2023/10/30 07:15:13;;;;;;;2.47;1.33;;;10.40;99.90;;;;;;5006445;28;20026;-52
2023/10/30 07:17:38;;;;;;;7.28;1.70;;;10.50;99.90;;;;;;5006298;28;20031;-51
2023/10/30 07:20:04;;;;;;;4.68;1.80;;;10.50;99.90;;;;;;5006289;28;20323;-51
2023/10/30 07:22:30;;;;;;;7.88;1.83;;;10.60;99.90;;;;;;5006436;28;20050;-51
2023/10/30 07:24:56;;;;;;;6.82;2.03;;;10.60;99.90;;;;;;5006237;28;20057;-50
2023/10/30 07:27:22;;;;;;;8.68;2.20;;;10.70;99.90;;;;;;5005789;28;20096;-51
2023/10/30 07:29:48;;;;;;;8.35;2.72;;;10.70;99.90;;;;;;5005315;28;20030;-51
2023/10/30 07:32:14;;;;;;;6.22;2.75;;;10.80;99.90;;;;;;5006132;28;20034;-51
2023/10/30 07:34:41;;;;;;;5.32;2.03;;;10.80;99.90;;;;;;5006016;28;20045;-49
2023/10/30 07:37:06;;;;;;;7.22;1.80;;;10.80;99.90;;;;;;5006097;28;20093;-47
2023/10/30 07:39:32;;;;;;;7.50;2.13;;;10.80;99.90;;;;;;5005761;28;20045;-48
2023/10/30 07:41:58;;;;;;;7.03;2.83;;;10.80;99.90;;;;;;5005861;28;20145;-47
2023/10/30 07:44:23;;;;;;;6.90;2.50;;;10.80;99.90;;;;;;5004926;28;20315;-48
2023/10/30 07:46:49;;;;;;;6.50;3.20;;;10.90;99.90;;;;;;5005875;28;20045;-48
2023/10/30 07:49:15;;;;;;;6.68;3.08;;;10.90;99.90;;;;;;5005916;28;20288;-51
2023/10/30 07:51:40;;;;;;;6.78;2.38;;;11.00;99.90;;;;;;5005798;28;20046;-51
2023/10/30 07:54:06;;;;;;;6.15;3.25;;;11.10;99.90;;;;;;5005774;28;20030;-51
2023/10/30 07:56:32;;;;;;;7.45;3.65;;;11.10;99.90;;;;;;5005623;28;20027;-51
2023/10/30 07:58:58;;;;;;;10.77;4.32;;;11.10;99.90;;;;;;5007585;28;20022;-51
2023/10/30 08:01:24;;;;;;;10.50;4.10;;;11.20;99.90;;;;;;5009453;28;20042;-47
2023/10/30 08:03:50;;;;;;;6.63;3.13;;;11.20;99.90;;;;;;5009707;28;20032;-51
2023/10/30 08:06:15;;;;;;;11.35;3.70;;;11.30;99.90;;;;;;5009507;28;20179;-51
2023/10/30 08:08:41;;;;;;;12.10;3.95;;;11.40;99.90;;;;;;5009634;28;20169;-52
2023/10/30 08:11:07;;;;;;;14.30;5.05;;;11.40;99.90;;;;;;5009153;28;20113;-51
2023/10/30 08:13:33;;;;;;;13.68;5.05;;;11.50;99.90;;;;;;5009652;28;20064;-52
2023/10/30 08:15:59;;;;;;;9.90;1.90;;;11.50;99.90;;;;;;5009465;28;20035;-52
2023/10/30 08:18:25;;;;;;;10.75;2.92;;;11.60;99.90;;;;;;5009768;28;20058;-52
2023/10/30 08:20:51;;;;;;;8.27;2.88;;;11.70;99.90;;;;;;5009555;28;20081;-52
2023/10/30 08:23:16;;;;;;;7.82;2.20;;;11.70;99.90;;;;;;5009545;28;20041;-51
2023/10/30 08:25:43;;;;;;;9.63;2.60;;;11.90;99.90;;;;;;5009366;28;20167;-51
2023/10/30 08:28:08;;;;;;;10.02;3.22;;;12.00;99.90;;;;;;5009196;28;20053;-52
2023/10/30 08:30:34;;;;;;;8.68;2.53;;;12.10;99.90;;;;;;5009296;28;20093;-52
2023/10/30 08:33:03;;;;;;;6.25;2.20;;;12.20;99.90;;;;;;5008185;28;20022;-51
2023/10/30 08:35:29;;;;;;;7.13;1.67;;;12.30;99.90;;;;;;5008056;28;20045;-51
2023/10/30 08:37:57;;;;;;;5.78;1.90;;;12.30;99.90;;;;;;5008989;28;20038;-52
2023/10/30 08:40:23;;;;;;;15.90;2.92;;;12.30;99.90;;;;;;5008882;28;20058;-50
2023/10/30 08:42:49;;;;;;;5.45;1.95;;;12.30;99.90;;;;;;5008481;28;20045;-49
2023/10/30 08:45:15;;;;;;;8.02;1.80;;;12.30;99.90;;;;;;5008792;28;20311;-49
2023/10/30 08:47:40;;;;;;;11.30;2.58;;;12.30;99.90;;;;;;5008614;28;20156;-48
2023/10/30 08:50:07;;;;;;;9.73;1.92;;;12.40;99.90;;;;;;5007674;28;20034;-51
2023/10/30 08:52:33;;;;;;;7.75;1.92;;;12.40;99.90;;;;;;5008818;28;20101;-51
2023/10/30 08:54:59;;;;;;;6.95;1.85;;;12.60;99.90;;;;;;5008646;28;20022;-51
2023/10/30 08:57:24;;;;;;;8.25;1.83;;;12.60;99.90;;;;;;5008145;28;20085;-48
2023/10/30 08:59:50;;;;;;;10.23;2.20;;;12.70;99.90;;;;;;5008388;28;20186;-48
2023/10/30 09:02:16;;;;;;;12.52;2.17;;;12.80;99.90;;;;;;5008418;28;20026;-51
2023/10/30 09:04:41;;;;;;;9.50;2.08;;;12.80;99.90;;;;;;5008464;28;20034;-51
2023/10/30 09:07:07;;;;;;;10.05;1.45;;;12.80;99.90;;;;;;5008430;28;20038;-51
2023/10/30 09:09:33;;;;;;;12.93;2.47;;;12.80;99.90;;;;;;5007370;28;20027;-51
2023/10/30 09:11:58;;;;;;;7.88;1.60;;;12.80;99.90;;;;;;5007101;28;20080;-52
2023/10/30 09:14:24;;;;;;;6.55;1.52;;;13.00;99.90;;;;;;5007523;28;20057;-52
2023/10/30 09:16:50;;;;;;;7.43;1.80;;;13.30;99.90;;;;;;5008396;28;20295;-52
2023/10/30 09:19:16;;;;;;;9.95;1.90;;;13.40;99.90;;;;;;5008423;28;20030;-52
2023/10/30 09:21:42;;;;;;;10.75;1.83;;;13.40;99.90;;;;;;5008235;28;20283;-51
2023/10/30 09:24:07;;;;;;;7.22;1.75;;;13.60;99.90;;;;;;5008089;28;20177;-52
2023/10/30 09:26:33;;;;;;;6.55;1.98;;;13.70;99.90;;;;;;5008168;28;20283;-51
2023/10/30 09:28:59;;;;;;;8.73;1.48;;;13.80;99.90;;;;;;5007511;28;20236;-53
2023/10/30 09:31:24;;;;;;;6.07;1.33;;;14.00;99.90;;;;;;5007842;28;20125;-51
2023/10/30 09:33:50;;;;;;;8.65;1.25;;;14.40;99.90;;;;;;5007794;28;20026;-52
2023/10/30 09:36:16;;;;;;;6.22;1.27;;;15.00;99.90;;;;;;5007956;28;20069;-50
2023/10/30 09:38:41;;;;;;;4.15;1.27;;;15.10;99.90;;;;;;5008066;28;20026;-48
2023/10/30 09:41:07;;;;;;;4.78;1.38;;;14.90;99.90;;;;;;5007830;28;20034;-51
2023/10/30 09:43:37;;;;;;;8.00;1.38;;;15.20;99.90;;;;;;4990581;28;20062;-51
2023/10/30 09:46:06;;;;;;;4.07;1.10;;;15.70;99.90;;;;;;5006803;28;20073;-51
2023/10/30 09:48:32;;;;;;;4.20;1.33;;;15.60;99.90;;;;;;5006311;28;20031;-51
2023/10/30 09:50:58;;;;;;;10.55;1.90;;;14.80;99.90;;;;;;4990306;28;20295;-52
2023/10/30 09:53:25;;;;;;;5.32;1.55;;;14.70;99.90;;;;;;4990049;28;20037;-48
2023/10/30 09:55:51;;;;;;;5.30;1.23;;;15.70;99.90;;;;;;5007075;28;20030;-50
2023/10/30 09:58:16;;;;;;;9.45;1.38;;;16.70;99.90;;;;;;4990046;28;20288;-49
2023/10/30 10:00:46;;;;;;;8.60;1.50;;;17.60;99.90;;;;;;4990118;28;20034;-49
2023/10/30 10:03:12;;;;;;;8.65;1.55;;;17.40;99.90;;;;;;5007318;28;20045;-52
2023/10/30 10:05:37;;;;;;;4.88;0.93;;;18.10;99.90;;;;;;5006978;28;20038;-52
2023/10/30 10:08:04;;;;;;;4.80;1.30;;;18.30;99.90;;;;;;5006203;28;20068;-50
2023/10/30 10:10:32;;;;;;;4.47;1.00;;;18.50;99.90;;;;;;5006800;28;20153;-50
2023/10/30 10:12:59;;;;;;;10.18;1.42;;;17.50;99.90;;;;;;4990141;28;20042;-52
2023/10/30 10:15:24;;;;;;;8.73;1.33;;;16.70;99.90;;;;;;5006002;28;20192;-51
2023/10/30 10:17:51;;;;;;;6.57;1.65;;;16.70;99.90;;;;;;5006538;28;20027;-52
2023/10/30 10:20:21;;;;;;;8.07;1.40;;;17.90;99.90;;;;;;5005722;28;20034;-51
2023/10/30 10:22:47;;;;;;;4.93;1.50;;;18.40;99.90;;;;;;5006324;28;20093;-52
2023/10/30 10:25:18;;;;;;;9.07;1.58;;;18.60;99.90;;;;;;5006727;28;20156;-53
2023/10/30 10:27:44;;;;;;;7.15;1.40;;;18.80;99.90;;;;;;5006748;28;20046;-51
2023/10/30 10:30:10;;;;;;;7.93;1.52;;;18.40;99.90;;;;;;5005148;28;20094;-53
2023/10/30 10:32:37;;;;;;;8.23;1.20;;;18.30;99.90;;;;;;5006268;28;20060;-53
2023/10/30 10:35:05;;;;;;;6.53;1.70;;;17.80;99.90;;;;;;5006777;28;20201;-50
2023/10/30 10:37:31;;;;;;;9.57;1.42;;;17.40;99.90;;;;;;5006733;28;20022;-52
2023/10/30 10:39:57;;;;;;;10.65;1.50;;;18.50;99.90;;;;;;5006600;28;20092;-51
2023/10/30 10:42:24;;;;;;;4.95;1.30;;;19.20;99.90;;;;;;5006510;28;20038;-52
2023/10/30 10:44:54;;;;;;;3.95;1.50;;;18.50;99.90;;;;;;5005508;28;20033;-52
2023/10/30 10:47:21;;;;;;;8.18;1.42;;;18.80;99.90;;;;;;5006338;28;20031;-51
2023/10/30 10:49:46;;;;;;;8.48;1.45;;;19.00;99.90;;;;;;5005286;28;20239;-52
2023/10/30 10:52:14;;;;;;;8.20;1.30;;;18.60;99.90;;;;;;5006110;28;20026;-51
2023/10/30 10:55:12;;;;;;;3.28;1.50;;;18.30;99.90;;;;;;5006216;28;20179;-51
2023/10/30 10:58:01;;;;;;;7.95;1.77;;;19.20;99.90;;;;;;4983865;28;20046;-55
2023/10/30 11:00:28;;;;;;;5.18;1.60;;;19.20;99.90;;;;;;4990448;28;20037;-52
2023/10/30 11:02:54;;;;;;;5.60;1.77;;;18.90;99.90;;;;;;5005186;28;20184;-50
2023/10/30 11:05:22;;;;;;;7.70;1.27;;;17.60;99.90;;;;;;4988611;28;20030;-49
2023/10/30 11:07:52;;;;;;;10.27;1.80;;;16.70;99.90;;;;;;5006040;28;20275;-51
2023/10/30 11:10:35;;;;;;;8.75;1.80;;;16.30;99.90;;;;;;4988399;28;20064;-51
2023/10/30 11:13:25;;;;;;;4.53;1.50;;;17.00;99.90;;;;;;4988744;28;20045;-50
2023/10/30 11:16:13;;;;;;;7.18;1.27;;;18.90;99.90;;;;;;5005719;28;20106;-50
2023/10/30 11:18:38;;;;;;;6.25;1.17;;;18.30;99.90;;;;;;4994780;28;20049;-51
2023/10/30 11:21:12;;;;;;;7.15;1.52;;;17.60;99.90;;;;;;5005134;28;20030;-51
2023/10/30 11:23:44;;;;;;;7.63;1.45;;;18.40;99.90;;;;;;5005404;28;20045;-52
2023/10/30 11:26:43;;;;;;;7.43;1.45;;;19.60;99.90;;;;;;5005595;28;20137;-50
2023/10/30 11:29:15;;;;;;;4.10;1.00;;;19.90;97.20;;;;;;5005617;28;20072;-52
2023/10/30 11:31:53;;;;;;;2.70;1.33;;;20.50;96.30;;;;;;5005669;28;20045;-52
2023/10/30 11:34:34;;;;;;;8.75;1.48;;;21.00;93.00;;;;;;5005074;28;20026;-51
2023/10/30 11:37:10;;;;;;;5.30;1.35;;;21.60;91.20;;;;;;5005256;28;20228;-52
2023/10/30 11:39:40;;;;;;;4.53;1.10;;;21.90;88.30;;;;;;5005226;28;20294;-51
2023/10/30 11:42:30;;;;;;;6.20;1.30;;;21.50;88.00;;;;;;5005560;28;20331;-52
2023/10/30 11:45:14;;;;;;;5.20;1.13;;;21.60;86.40;;;;;;5005780;28;20201;-52
2023/10/30 11:47:48;;;;;;;2.88;1.10;;;20.30;92.40;;;;;;5005417;28;20053;-52
2023/10/30 11:50:15;;;;;;;4.50;1.10;;;19.30;96.80;;;;;;5004365;28;20041;-52
2023/10/30 11:52:41;;;;;;;7.30;1.20;;;17.80;99.90;;;;;;4988534;28;20140;-52
2023/10/30 11:55:08;;;;;;;5.05;1.25;;;17.40;99.90;;;;;;5004206;28;20038;-51
2023/10/30 11:57:34;;;;;;;5.45;1.27;;;17.10;99.90;;;;;;5005379;28;20347;-51
2023/10/30 12:00:00;;;;;;;4.30;1.10;;;18.20;99.90;;;;;;5005451;28;20101;-52
2023/10/30 12:02:26;;;;;;;5.10;1.20;;;19.90;96.80;;;;;;5005253;28;20034;-52
2023/10/30 12:04:52;;;;;;;3.45;1.20;;;20.10;94.80;;;;;;5004274;28;20022;-51
2023/10/30 12:07:18;;;;;;;6.63;1.20;;;19.80;95.60;;;;;;5003968;28;20030;-52
2023/10/30 12:09:43;;;;;;;5.53;1.20;;;18.80;99.10;;;;;;5005286;28;20034;-51
2023/10/30 12:12:09;;;;;;;6.20;1.30;;;17.60;99.90;;;;;;5005155;28;20034;-48
2023/10/30 12:14:35;;;;;;;6.22;1.30;;;17.00;99.90;;;;;;5005265;28;20030;-48
2023/10/30 12:17:02;;;;;;;4.80;0.98;;;16.60;99.90;;;;;;5005203;28;20255;-51
2023/10/30 12:19:28;;;;;;;5.70;1.20;;;16.80;99.90;;;;;;5005063;28;20061;-51
2023/10/30 12:21:54;;;;;;;5.45;1.20;;;16.70;99.90;;;;;;5004770;28;20026;-50
2023/10/30 12:24:20;;;;;;;2.47;1.08;;;16.50;99.90;;;;;;5005268;28;20034;-50
2023/10/30 12:26:48;;;;;;;2.65;0.80;;;17.40;99.90;;;;;;5005331;28;20045;-49
2023/10/30 12:29:21;;;;;;;4.38;1.08;;;19.30;99.70;;;;;;5005149;28;20040;-51
2023/10/30 12:31:51;;;;;;;3.08;0.80;;;19.90;93.50;;;;;;5005459;28;20171;-52
2023/10/30 12:34:22;;;;;;;3.30;1.27;;;18.40;99.70;;;;;;5005170;28;20154;-52
2023/10/30 12:36:48;;;;;;;4.55;0.90;;;17.40;99.90;;;;;;5005003;28;20126;-52
2023/10/30 12:39:20;;;;;;;8.90;1.60;;;16.90;99.90;;;;;;5005271;28;20299;-52
2023/10/30 12:41:55;;;;;;;1.92;0.80;;;16.70;99.90;;;;;;5004910;28;20089;-51
2023/10/30 12:44:21;;;;;;;4.10;1.23;;;16.80;99.90;;;;;;5005892;28;20117;-52
2023/10/30 12:46:46;;;;;;;5.55;0.95;;;16.90;99.90;;;;;;5007852;28;20085;-49
2023/10/30 12:49:12;;;;;;;1.85;0.70;;;17.10;99.90;;;;;;5008465;28;20187;-51